Kapitan Dranitsyn — UCJP — position and weather

sailwx.info

Track history (hours):
 
Tides and Currents Weather Stations Pressure Air Temp Water Temp Dewpoint Dewpoint Depression Visibility Wind Speed Wind Dir Waves Ship Positions

Oceanographic research ship Kapitan Dranitsyn (Russia)

Detailed information on ship capabilities available from ARCUS's ALIAS (Arctic Logistics Information and Support) project.

Last reported at 2016-Sep-10 09:15 UTC. Time now 2016-Sep-27 15:30 UTC.
Position N 69°04' E 033°07'.
Warning: this ship's position is 17 days out of date.

Length 132 m; beam 27 m.

Type: Other ship. MMSI: 273138300.

Date/timePositionNaut miles runAvg speedWind from/ knotsBaromVisibWave heightAir tempDewpointWater temp
2016-Sep-10 09:15N 69°04' E 033°07'4 6.4
2016-Sep-10 08:33N 68°59' E 033°03'1 0.6
2016-Sep-10 07:32N 68°59' E 033°03'0 0.0
2016-Sep-10 06:32N 68°59' E 033°03'0 0.0
2016-Sep-10 05:32N 68°59' E 033°03'0 0.0
2016-Sep-10 04:32N 68°59' E 033°03'0 0.0
2016-Sep-10 03:32N 68°59' E 033°03'0 0.0
2016-Sep-10 02:32N 68°59' E 033°03'0 0.0
2016-Sep-10 01:32N 68°59' E 033°03'0 0.0
2016-Sep-10 00:32N 68°59' E 033°03'0 0.0
2016-Sep-09 23:32N 68°59' E 033°03'0 0.0
2016-Sep-09 22:32N 68°59' E 033°03'0 0.0
2016-Sep-09 21:32N 68°59' E 033°03'0 0.0
2016-Sep-09 20:32N 68°59' E 033°03'0 0.0
2016-Sep-09 19:32N 68°59' E 033°03'0 0.0
2016-Sep-09 18:32N 68°59' E 033°03'0 0.0
2016-Sep-09 17:32N 68°59' E 033°03'0 0.0
2016-Sep-09 16:32N 68°59' E 033°03'0 0.0
2016-Sep-09 15:32N 68°59' E 033°03'0 0.0
2016-Sep-09 14:32N 68°59' E 033°03'0 0.0
2016-Sep-09 13:32N 68°59' E 033°03'0 0.0
2016-Sep-09 12:32N 68°59' E 033°03'0 0.0
2016-Sep-09 11:32N 68°59' E 033°03'0 0.0
2016-Sep-09 10:32N 68°59' E 033°03'0 0.0
2016-Sep-09 09:32N 68°59' E 033°03'0 0.0
2016-Sep-09 08:32N 68°59' E 033°03'0 0.0
2016-Sep-09 07:32N 68°59' E 033°03'0 0.0
2016-Sep-09 06:32N 68°59' E 033°03'0 0.0
2016-Sep-09 05:32N 68°59' E 033°03'0 0.0
2016-Sep-09 04:32N 68°59' E 033°03'0 0.0
2016-Sep-09 03:32N 68°59' E 033°03'0 0.0
2016-Sep-09 02:32N 68°59' E 033°03'0 0.0
2016-Sep-09 01:32N 68°59' E 033°03'0 0.0
2016-Sep-09 00:32N 68°59' E 033°03'0 0.0
2016-Sep-08 23:32N 68°59' E 033°03'0 0.0
2016-Sep-08 22:32N 68°59' E 033°03'0 0.2
2016-Sep-08 21:33N 68°59' E 033°02'5 4.5
2016-Sep-08 20:33N 69°03' E 033°04'  
2016-Sep-04 23:33N 59°06' E 004°11'10 9.6
2016-Sep-04 22:33N 58°57' E 004°20'1010.3
2016-Sep-04 21:33N 58°49' E 004°33'1010.2
2016-Sep-04 20:33N 58°42' E 004°46'1010.0
2016-Sep-04 19:33N 58°35' E 004°59'1010.4
2016-Sep-04 18:33N 58°27' E 005°12'1010.2
2016-Sep-04 17:33N 58°20' E 005°27'1110.4
2016-Sep-04 16:33N 58°13' E 005°42'1111.3
2016-Sep-04 15:33N 58°06' E 005°58'1111.0
2016-Sep-04 14:33N 57°58' E 006°13'1110.9
2016-Sep-04 13:33N 57°51' E 006°28'1110.7
2016-Sep-04 12:33N 57°48' E 006°47'1211.5
2016-Sep-04 11:32N 57°48' E 007°09'10210.2
2016-Sep-04 01:33N 57°49' E 010°20'9 8.6
2016-Sep-04 00:34N 57°49' E 010°37'8 7.9
2016-Sep-03 23:32N 57°46' E 010°51'9 8.9
2016-Sep-03 22:33N 57°40' E 011°03'8 8.4
2016-Sep-03 21:34N 57°34' E 011°14'9 8.5
2016-Sep-03 20:34N 57°28' E 011°25'9 9.0
2016-Sep-03 19:34N 57°20' E 011°32'9 9.2
2016-Sep-03 18:34N 57°11' E 011°37'9 9.1
2016-Sep-03 17:34N 57°02' E 011°43'10 9.7
2016-Sep-03 16:33N 56°53' E 011°49'9 9.1
2016-Sep-03 15:33N 56°45' E 011°54'1110.6
2016-Sep-03 14:33N 56°36' E 011°44'1610.9
2016-Sep-03 13:05N 56°22' E 011°29'710.9
2016-Sep-03 12:25N 56°16' E 011°22'910.4
2016-Sep-03 11:33N 56°08' E 011°13'24 9.9
2016-Sep-03 09:09N 55°48' E 010°49'2810.6
2016-Sep-03 06:28N 55°21' E 011°02'1011.4
2016-Sep-03 05:34N 55°11' E 011°05'1010.0
2016-Sep-03 04:33N 55°01' E 011°02'10 9.5
2016-Sep-03 03:33N 54°53' E 010°54'10 9.8
2016-Sep-03 02:34N 54°43' E 010°53'9 9.1
2016-Sep-03 01:33N 54°37' E 011°06'9 9.3
2016-Sep-03 00:33N 54°33' E 011°20'10 9.5
2016-Sep-02 23:33N 54°29' E 011°35'10 9.7
2016-Sep-02 22:33N 54°26' E 011°51'10 9.9
2016-Sep-02 21:33N 54°27' E 012°08'10 9.9
2016-Sep-02 20:33N 54°36' E 012°14'9 9.4
2016-Sep-02 19:34N 54°41' E 012°27'2110.1
2016-Sep-02 17:29N 54°51' E 012°60'14 9.9
2016-Sep-02 16:04N 54°55' E 013°23'5 9.3
2016-Sep-02 15:32N 54°57' E 013°31'9 9.7
2016-Sep-02 14:33N 55°00' E 013°46'10 9.7
2016-Sep-02 13:33N 55°04' E 014°03'9 9.4
2016-Sep-02 12:33N 55°11' E 014°13'10 9.5
2016-Sep-02 11:33N 55°18' E 014°24'9 9.2
2016-Sep-02 10:33N 55°25' E 014°34'9 9.3
2016-Sep-02 09:34N 55°30' E 014°48'1010.0
2016-Sep-02 08:33N 55°34' E 015°04'10 9.8
2016-Sep-02 07:33N 55°39' E 015°20'97 9.6
2016-Sep-01 21:25N 56°08' E 018°05'8 9.4
2016-Sep-01 20:33N 56°12' E 018°17'56 9.2
2016-Sep-01 14:29N 56°56' E 019°22'187 9.3
2016-Aug-31 18:28N 59°31' E 022°38'10 9.4
2016-Aug-31 17:25N 59°34' E 022°56'8 9.7
2016-Aug-31 16:33N 59°36' E 023°12'10 9.6
2016-Aug-31 15:33N 59°39' E 023°31'1010.0
2016-Aug-31 14:33N 59°42' E 023°50'10 9.9
2016-Aug-31 13:29N 59°44' E 024°10'9 9.9
2016-Aug-31 12:32N 59°47' E 024°28'9 9.6
2016-Aug-31 11:33N 59°50' E 024°46'  
Track history (hours):
 
Tides and Currents Weather Stations Pressure Air Temp Water Temp Dewpoint Dewpoint Depression Visibility Wind Speed Wind Dir Waves Ship Positions

Oceanographic research ship Kapitan Dranitsyn (Russia)

Detailed information on ship capabilities available from ARCUS's ALIAS (Arctic Logistics Information and Support) project.

Last reported at 2016-Sep-10 09:15 UTC. Time now 2016-Sep-27 15:30 UTC.
Position N 69°04' E 033°07'.
Warning: this ship's position is 17 days out of date.

Length 132 m; beam 27 m.

Type: Other ship. MMSI: 273138300.

Date/timePositionNaut miles runAvg speedWind from/ knotsBaromVisibWave heightAir tempDewpointWater temp
2016-Sep-10 09:15N 69°04' E 033°07'4 6.4
2016-Sep-10 08:33N 68°59' E 033°03'1 0.6
2016-Sep-10 07:32N 68°59' E 033°03'0 0.0
2016-Sep-10 06:32N 68°59' E 033°03'0 0.0
2016-Sep-10 05:32N 68°59' E 033°03'0 0.0
2016-Sep-10 04:32N 68°59' E 033°03'0 0.0
2016-Sep-10 03:32N 68°59' E 033°03'0 0.0
2016-Sep-10 02:32N 68°59' E 033°03'0 0.0
2016-Sep-10 01:32N 68°59' E 033°03'0 0.0
2016-Sep-10 00:32N 68°59' E 033°03'0 0.0
2016-Sep-09 23:32N 68°59' E 033°03'0 0.0
2016-Sep-09 22:32N 68°59' E 033°03'0 0.0
2016-Sep-09 21:32N 68°59' E 033°03'0 0.0
2016-Sep-09 20:32N 68°59' E 033°03'0 0.0
2016-Sep-09 19:32N 68°59' E 033°03'0 0.0
2016-Sep-09 18:32N 68°59' E 033°03'0 0.0
2016-Sep-09 17:32N 68°59' E 033°03'0 0.0
2016-Sep-09 16:32N 68°59' E 033°03'0 0.0
2016-Sep-09 15:32N 68°59' E 033°03'0 0.0
2016-Sep-09 14:32N 68°59' E 033°03'0 0.0
2016-Sep-09 13:32N 68°59' E 033°03'0 0.0
2016-Sep-09 12:32N 68°59' E 033°03'0 0.0
2016-Sep-09 11:32N 68°59' E 033°03'0 0.0
2016-Sep-09 10:32N 68°59' E 033°03'0 0.0
2016-Sep-09 09:32N 68°59' E 033°03'0 0.0
2016-Sep-09 08:32N 68°59' E 033°03'0 0.0
2016-Sep-09 07:32N 68°59' E 033°03'0 0.0
2016-Sep-09 06:32N 68°59' E 033°03'0 0.0
2016-Sep-09 05:32N 68°59' E 033°03'0 0.0
2016-Sep-09 04:32N 68°59' E 033°03'0 0.0
2016-Sep-09 03:32N 68°59' E 033°03'0 0.0
2016-Sep-09 02:32N 68°59' E 033°03'0 0.0
2016-Sep-09 01:32N 68°59' E 033°03'0 0.0
2016-Sep-09 00:32N 68°59' E 033°03'0 0.0
2016-Sep-08 23:32N 68°59' E 033°03'0 0.0
2016-Sep-08 22:32N 68°59' E 033°03'0 0.2
2016-Sep-08 21:33N 68°59' E 033°02'5 4.5
2016-Sep-08 20:33N 69°03' E 033°04'  
2016-Sep-04 23:33N 59°06' E 004°11'10 9.6
2016-Sep-04 22:33N 58°57' E 004°20'1010.3
2016-Sep-04 21:33N 58°49' E 004°33'1010.2
2016-Sep-04 20:33N 58°42' E 004°46'1010.0
2016-Sep-04 19:33N 58°35' E 004°59'1010.4
2016-Sep-04 18:33N 58°27' E 005°12'1010.2
2016-Sep-04 17:33N 58°20' E 005°27'1110.4
2016-Sep-04 16:33N 58°13' E 005°42'1111.3
2016-Sep-04 15:33N 58°06' E 005°58'1111.0
2016-Sep-04 14:33N 57°58' E 006°13'1110.9
2016-Sep-04 13:33N 57°51' E 006°28'1110.7
2016-Sep-04 12:33N 57°48' E 006°47'1211.5
2016-Sep-04 11:32N 57°48' E 007°09'10210.2
2016-Sep-04 01:33N 57°49' E 010°20'9 8.6
2016-Sep-04 00:34N 57°49' E 010°37'8 7.9
2016-Sep-03 23:32N 57°46' E 010°51'9 8.9
2016-Sep-03 22:33N 57°40' E 011°03'8 8.4
2016-Sep-03 21:34N 57°34' E 011°14'9 8.5
2016-Sep-03 20:34N 57°28' E 011°25'9 9.0
2016-Sep-03 19:34N 57°20' E 011°32'9 9.2
2016-Sep-03 18:34N 57°11' E 011°37'9 9.1
2016-Sep-03 17:34N 57°02' E 011°43'10 9.7
2016-Sep-03 16:33N 56°53' E 011°49'9 9.1
2016-Sep-03 15:33N 56°45' E 011°54'1110.6
2016-Sep-03 14:33N 56°36' E 011°44'1610.9
2016-Sep-03 13:05N 56°22' E 011°29'710.9
2016-Sep-03 12:25N 56°16' E 011°22'910.4
2016-Sep-03 11:33N 56°08' E 011°13'24 9.9
2016-Sep-03 09:09N 55°48' E 010°49'2810.6
2016-Sep-03 06:28N 55°21' E 011°02'1011.4
2016-Sep-03 05:34N 55°11' E 011°05'1010.0
2016-Sep-03 04:33N 55°01' E 011°02'10 9.5
2016-Sep-03 03:33N 54°53' E 010°54'10 9.8
2016-Sep-03 02:34N 54°43' E 010°53'9 9.1
2016-Sep-03 01:33N 54°37' E 011°06'9 9.3
2016-Sep-03 00:33N 54°33' E 011°20'10 9.5
2016-Sep-02 23:33N 54°29' E 011°35'10 9.7
2016-Sep-02 22:33N 54°26' E 011°51'10 9.9
2016-Sep-02 21:33N 54°27' E 012°08'10 9.9
2016-Sep-02 20:33N 54°36' E 012°14'9 9.4
2016-Sep-02 19:34N 54°41' E 012°27'2110.1
2016-Sep-02 17:29N 54°51' E 012°60'14 9.9
2016-Sep-02 16:04N 54°55' E 013°23'5 9.3
2016-Sep-02 15:32N 54°57' E 013°31'9 9.7
2016-Sep-02 14:33N 55°00' E 013°46'10 9.7
2016-Sep-02 13:33N 55°04' E 014°03'9 9.4
2016-Sep-02 12:33N 55°11' E 014°13'10 9.5
2016-Sep-02 11:33N 55°18' E 014°24'9 9.2
2016-Sep-02 10:33N 55°25' E 014°34'9 9.3
2016-Sep-02 09:34N 55°30' E 014°48'1010.0
2016-Sep-02 08:33N 55°34' E 015°04'10 9.8
2016-Sep-02 07:33N 55°39' E 015°20'97 9.6
2016-Sep-01 21:25N 56°08' E 018°05'8 9.4
2016-Sep-01 20:33N 56°12' E 018°17'56 9.2
2016-Sep-01 14:29N 56°56' E 019°22'187 9.3
2016-Aug-31 18:28N 59°31' E 022°38'10 9.4
2016-Aug-31 17:25N 59°34' E 022°56'8 9.7
2016-Aug-31 16:33N 59°36' E 023°12'10 9.6
2016-Aug-31 15:33N 59°39' E 023°31'1010.0
2016-Aug-31 14:33N 59°42' E 023°50'10 9.9
2016-Aug-31 13:29N 59°44' E 024°10'9 9.9
2016-Aug-31 12:32N 59°47' E 024°28'9 9.6
2016-Aug-31 11:33N 59°50' E 024°46'  

Dump ship's entire track history